Time;durP1;ratioP1;P1;durP2;ratioP2;P2;SDS_P1;SDS_P2;PMS_P1;PMS_P2;Temp;Humidity;BMP_temperature;BMP_pressure;BME280_temperature;BME280_humidity;BME280_pressure;Samples;Min_cycle;Max_cycle;Signal;HPM_P1;HPM_P2
2023/07/03 00:00:14;;;;;;;13.40;3.80;;;;;;;-142.57;76.18;115900.28;6264119;22;20075;-85
2023/07/03 00:02:42;;;;;;;9.88;3.08;;;;;;;-142.57;76.78;115900.28;6277156;22;20038;-86
2023/07/03 00:05:09;;;;;;;8.25;2.80;;;;;;;-142.57;77.48;115900.28;6283674;22;20958;-87
2023/07/03 00:07:39;;;;;;;7.30;3.03;;;;;;;-142.57;76.03;115900.28;6284131;22;20000;-88
2023/07/03 00:10:05;;;;;;;11.80;3.13;;;;;;;-142.57;76.34;115900.28;6256284;22;20071;-86
2023/07/03 00:12:31;;;;;;;6.55;2.90;;;;;;;-142.57;75.69;115900.28;6281902;22;20011;-88
2023/07/03 00:14:57;;;;;;;7.53;3.05;;;;;;;-142.57;75.50;115900.28;6255021;22;20338;-88
2023/07/03 00:17:23;;;;;;;6.95;2.55;;;;;;;-142.57;74.98;115900.28;6281637;22;20058;-83
2023/07/03 00:19:49;;;;;;;5.97;2.67;;;;;;;-142.57;74.59;115900.28;6281950;22;20403;-85
2023/07/03 00:22:14;;;;;;;5.80;2.53;;;;;;;-142.57;74.59;115900.28;6281983;22;20012;-86
2023/07/03 00:24:40;;;;;;;8.02;2.80;;;;;;;-142.57;74.28;115900.28;6281406;22;20008;-84
2023/07/03 00:27:06;;;;;;;9.00;2.70;;;;;;;-142.57;74.13;115900.28;6280964;22;20012;-85
2023/07/03 00:29:33;;;;;;;8.60;3.00;;;;;;;-142.57;73.91;115900.28;6227873;22;20010;-89
2023/07/03 00:31:59;;;;;;;6.95;2.90;;;;;;;-142.57;73.99;115900.28;6280642;22;20012;-84
2023/07/03 00:34:26;;;;;;;6.82;2.45;;;;;;;-142.57;74.07;115900.28;6280152;22;20040;-86
2023/07/03 00:36:54;;;;;;;12.48;3.17;;;;;;;-142.57;74.16;115900.28;6252950;22;20015;-85
2023/07/03 00:39:20;;;;;;;6.47;2.55;;;;;;;-142.57;73.91;115900.28;6281850;22;20008;-85
2023/07/03 00:41:46;;;;;;;6.05;2.25;;;;;;;-142.57;74.36;115900.28;6253979;22;20410;-89
2023/07/03 00:44:17;;;;;;;9.35;2.40;;;;;;;-142.57;74.92;115900.28;6202959;22;20008;-84
2023/07/03 00:46:46;;;;;;;7.93;2.58;;;;;;;-142.57;74.59;115900.28;6279405;22;20062;-85
2023/07/03 00:49:14;;;;;;;7.90;2.50;;;;;;;-142.57;75.14;115900.28;6280062;22;20008;-85
2023/07/03 00:51:44;;;;;;;6.90;3.13;;;;;;;-142.57;76.41;115900.28;6280010;22;20090;-85
2023/07/03 00:54:10;;;;;;;12.82;2.67;;;;;;;-142.57;77.69;115900.28;6252799;22;20007;-83
2023/07/03 00:56:36;;;;;;;10.05;2.95;;;;;;;-142.57;78.67;115900.28;6228089;22;20019;-84
2023/07/03 00:59:04;;;;;;;10.40;3.13;;;;;;;-142.57;77.62;115900.28;6280757;22;20522;-85
2023/07/03 01:01:43;;;;;;;5.95;2.78;;;;;;;-142.57;78.75;115900.28;6254934;22;20023;-86
2023/07/03 01:04:13;;;;;;;11.38;2.80;;;;;;;-142.57;77.81;115900.28;6282748;22;20019;-87
2023/07/03 01:06:51;;;;;;;12.93;2.80;;;;;;;-142.57;77.85;115900.28;6253647;22;20042;-82
2023/07/03 01:09:21;;;;;;;9.77;2.85;;;;;;;-142.57;78.11;115900.28;6281006;22;20013;-81
2023/07/03 01:11:50;;;;;;;4.85;2.33;;;;;;;-142.57;81.91;115900.28;6281112;22;20457;-85
2023/07/03 01:14:19;;;;;;;8.40;3.20;;;;;;;-142.57;83.19;115900.28;6282542;22;20006;-88
2023/07/03 01:16:47;;;;;;;11.43;3.22;;;;;;;-142.57;84.52;115900.28;6255336;22;20007;-86
2023/07/03 01:19:20;;;;;;;8.10;2.78;;;;;;;-142.57;85.42;115900.28;6258740;22;20031;-83
2023/07/03 01:21:55;;;;;;;;;;;;;;;-142.57;84.08;115900.28;6261373;22;20091;-85
2023/07/03 01:24:31;;;;;;;5.38;2.53;;;;;;;-142.57;83.85;115900.28;6283138;22;19981;-86
2023/07/03 01:26:58;;;;;;;8.43;2.85;;;;;;;-142.57;83.83;115900.28;6256253;22;20012;-84
2023/07/03 01:29:24;;;;;;;11.73;2.63;;;;;;;-142.57;82.34;115900.28;6256283;22;20000;-88
2023/07/03 01:31:56;;;;;;;7.72;3.10;;;;;;;-142.57;83.91;115900.28;6254675;22;20008;-82
2023/07/03 01:34:23;;;;;;;7.40;3.13;;;;;;;-142.57;85.28;115900.28;6256563;22;20015;-84
2023/07/03 01:36:49;;;;;;;6.32;3.20;;;;;;;-142.57;85.79;115900.28;6283929;22;20084;-86
2023/07/03 01:39:15;;;;;;;6.68;2.45;;;;;;;-142.57;87.70;115900.28;6283701;22;20008;-88
2023/07/03 01:41:42;;;;;;;16.27;3.45;;;;;;;-142.57;86.22;115900.28;6286138;22;20008;-84
2023/07/03 01:44:10;;;;;;;6.38;3.13;;;;;;;-142.57;85.66;115900.28;6299274;22;20052;-83
2023/07/03 01:46:36;;;;;;;4.78;2.95;;;;;;;-142.57;86.98;115900.28;6273336;22;20022;-85
2023/07/03 01:49:01;;;;;;;7.70;3.13;;;;;;;-142.57;86.77;115900.28;6270757;22;20169;-82
2023/07/03 01:51:40;;;;;;;6.78;3.40;;;;;;;-142.57;87.94;115900.28;6300346;22;20059;-83
2023/07/03 01:54:14;;;;;;;7.43;3.33;;;;;;;-142.57;89.85;115900.28;6301103;22;20072;-82
2023/07/03 01:56:45;;;;;;;10.68;3.15;;;;;;;-142.57;91.28;115900.28;6302056;22;19999;-82
2023/07/03 01:59:14;;;;;;;8.88;3.10;;;;;;;-142.57;89.91;115900.28;6297168;22;20071;-81
2023/07/03 02:02:07;;;;;;;4.95;3.00;;;;;;;-142.57;90.33;115900.28;6271085;22;20088;-81
2023/07/03 02:04:43;;;;;;;4.97;2.78;;;;;;;-142.57;91.44;115900.28;6279435;22;20075;-80
2023/07/03 02:07:14;;;;;;;9.07;3.35;;;;;;;-142.57;89.31;115900.28;6298204;22;20018;-81
2023/07/03 02:09:59;;;;;;;5.97;2.60;;;;;;;-142.57;89.20;115900.28;6274080;22;20011;-80
2023/07/03 02:12:28;;;;;;;5.13;2.85;;;;;;;-142.57;87.94;115900.28;6272617;22;20011;-81
2023/07/03 02:15:02;;;;;;;7.80;2.75;;;;;;;-142.57;86.89;115900.28;6299333;22;20008;-81
2023/07/03 02:17:31;;;;;;;14.20;3.03;;;;;;;-142.57;87.31;115900.28;6270299;22;20022;-81
2023/07/03 02:19:57;;;;;;;12.27;2.80;;;;;;;-142.57;90.31;115900.28;6298852;22;20015;-80
2023/07/03 02:22:22;;;;;;;11.27;2.42;;;;;;;-142.57;91.46;115900.28;6294414;22;20019;-81
2023/07/03 02:24:48;;;;;;;7.22;2.40;;;;;;;-142.57;90.00;115900.28;6267442;22;20065;-83
2023/07/03 02:27:13;;;;;;;9.10;2.55;;;;;;;-142.57;88.90;115900.28;6266341;22;20095;-85
2023/07/03 02:29:59;;;;;;;7.68;2.63;;;;;;;-142.57;89.06;115900.28;6266873;22;20011;-81
2023/07/03 02:32:33;;;;;;;6.65;2.90;;;;;;;-142.57;89.04;115900.28;6293945;22;20008;-82
2023/07/03 02:35:05;;;;;;;6.35;2.67;;;;;;;-142.57;89.69;115900.28;6295908;22;20008;-83
2023/07/03 02:37:31;;;;;;;6.88;2.80;;;;;;;-142.57;88.61;115900.28;6295756;22;20008;-82
2023/07/03 02:39:56;;;;;;;11.25;3.08;;;;;;;-142.57;88.75;115900.28;6267127;22;20004;-87
2023/07/03 02:42:22;;;;;;;7.90;2.88;;;;;;;-142.57;88.78;115900.28;6290103;22;20008;-85
2023/07/03 02:44:49;;;;;;;8.80;2.97;;;;;;;-142.57;87.83;115900.28;6262558;22;20019;-89
2023/07/03 02:47:14;;;;;;;5.65;2.88;;;;;;;-142.57;89.18;115900.28;6257485;22;20008;-90
2023/07/03 02:49:41;;;;;;;10.98;2.97;;;;;;;-142.57;90.54;115900.28;6253126;22;20050;-86
2023/07/03 02:52:07;;;;;;;7.80;2.40;;;;;;;-142.57;89.53;115900.28;6280223;22;20482;-87
2023/07/03 02:54:36;;;;;;;7.22;2.72;;;;;;;-142.57;90.68;115900.28;6252871;22;20435;-87
2023/07/03 02:57:03;;;;;;;8.93;2.55;;;;;;;-142.57;88.49;115900.28;6252886;22;20015;-86
2023/07/03 02:59:29;;;;;;;8.02;2.65;;;;;;;-142.57;87.14;115900.28;6252244;22;20004;-89
2023/07/03 03:01:55;;;;;;;7.68;2.90;;;;;;;-142.57;85.89;115900.28;6253729;22;20012;-88
2023/07/03 03:04:22;;;;;;;8.07;2.72;;;;;;;-142.57;85.65;115900.28;6254556;22;20016;-88
2023/07/03 03:06:50;;;;;;;5.13;2.35;;;;;;;-142.57;86.22;115900.28;6281078;22;20373;-89
2023/07/03 03:09:16;;;;;;;4.72;2.50;;;;;;;-142.57;86.41;115900.28;6280624;22;20014;-90
2023/07/03 03:11:42;;;;;;;5.10;2.22;;;;;;;-142.57;85.06;115900.28;6228993;22;20028;-91
2023/07/03 03:14:12;;;;;;;5.63;2.22;;;;;;;-142.57;87.26;115900.28;6256563;22;20007;-84
2023/07/03 03:16:38;;;;;;;5.82;2.30;;;;;;;-142.57;87.53;115900.28;6258475;22;21191;-86
2023/07/03 03:19:04;;;;;;;6.85;2.45;;;;;;;-142.57;90.00;115900.28;6280353;22;20012;-85
2023/07/03 03:21:31;;;;;;;7.90;2.67;;;;;;;-142.57;93.72;115900.28;6254591;22;20012;-88
2023/07/03 03:24:00;;;;;;;10.35;2.42;;;;;;;-142.57;95.16;115900.28;6282980;22;20004;-88
2023/07/03 03:26:26;;;;;;;6.05;3.00;;;;;;;-142.57;96.09;115900.28;6256173;22;20338;-89
2023/07/03 03:28:52;;;;;;;6.80;2.97;;;;;;;-142.57;98.68;115900.28;6255224;22;20029;-87
2023/07/03 03:31:18;;;;;;;7.15;2.45;;;;;;;-142.57;100.00;115900.28;6282343;22;20012;-84
2023/07/03 03:33:54;;;;;;;7.40;2.53;;;;;;;-142.57;100.00;115900.28;6255791;22;20012;-88
2023/07/03 03:36:20;;;;;;;12.70;2.80;;;;;;;-142.57;98.68;115900.28;6255565;22;20080;-89
2023/07/03 03:38:45;;;;;;;10.75;2.60;;;;;;;-142.57;98.89;115900.28;6255797;22;20008;-89
2023/07/03 03:41:12;;;;;;;7.10;3.17;;;;;;;-142.57;97.55;115900.28;6284303;22;20003;-84
2023/07/03 03:43:39;;;;;;;7.65;3.03;;;;;;;-142.57;96.63;115900.28;6255822;22;20015;-86
2023/07/03 03:46:09;;;;;;;10.10;2.60;;;;;;;-142.57;96.63;115900.28;6254886;22;20023;-87
2023/07/03 03:48:35;;;;;;;5.45;2.70;;;;;;;-142.57;98.44;115900.28;6254483;22;20007;-81
2023/07/03 03:51:03;;;;;;;8.68;2.97;;;;;;;-142.57;100.00;115900.28;6257339;22;20046;-86
2023/07/03 03:53:30;;;;;;;6.55;3.38;;;;;;;-142.57;99.98;115900.28;6230525;22;20016;-84
2023/07/03 03:55:56;;;;;;;11.98;2.72;;;;;;;-142.57;100.00;115900.28;6285002;22;20036;-87
2023/07/03 03:58:22;;;;;;;7.70;2.83;;;;;;;-142.57;100.00;115900.28;6258117;22;20032;-84
2023/07/03 04:00:50;;;;;;;8.05;2.60;;;;;;;-142.57;100.00;115900.28;6228999;22;20011;-85
2023/07/03 04:03:16;;;;;;;12.82;3.20;;;;;;;-142.57;100.00;115900.28;6254000;22;20030;-85
2023/07/03 04:05:42;;;;;;;8.80;2.75;;;;;;;-142.57;100.00;115900.28;6282578;22;20027;-85
2023/07/03 04:08:09;;;;;;;5.65;2.70;;;;;;;-142.57;100.00;115900.28;6256151;22;20031;-86
2023/07/03 04:10:35;;;;;;;6.05;2.67;;;;;;;-142.57;97.87;115900.28;6283663;22;20004;-88
2023/07/03 04:13:01;;;;;;;8.00;2.10;;;;;;;-142.57;97.72;115900.28;6253815;22;20399;-88
2023/07/03 04:15:32;;;;;;;6.88;2.83;;;;;;;-142.57;97.86;115900.28;6282212;22;20012;-83
2023/07/03 04:17:58;;;;;;;7.80;2.45;;;;;;;-142.57;99.93;115900.28;6256385;22;20023;-90
2023/07/03 04:20:25;;;;;;;9.30;2.58;;;;;;;-142.57;100.00;115900.28;6284151;22;20331;-83
2023/07/03 04:22:51;;;;;;;7.97;3.13;;;;;;;-142.57;100.00;115900.28;6283304;22;20004;-86
2023/07/03 04:25:16;;;;;;;6.03;2.30;;;;;;;-142.57;100.00;115900.28;6285288;22;20083;-81
2023/07/03 04:27:42;;;;;;;5.70;2.58;;;;;;;-142.57;100.00;115900.28;6290565;22;20007;-82
2023/07/03 04:30:09;;;;;;;7.68;2.45;;;;;;;-142.57;99.50;115900.28;6288730;22;20010;-84
2023/07/03 04:32:53;;;;;;;6.45;2.83;;;;;;;-142.57;98.37;115900.28;6257873;22;20019;-87
2023/07/03 04:35:19;;;;;;;8.32;2.75;;;;;;;-142.57;98.37;115900.28;6281435;22;20064;-85
2023/07/03 04:37:45;;;;;;;6.15;2.75;;;;;;;-142.57;99.03;115900.28;6282757;22;20035;-84
2023/07/03 04:40:12;;;;;;;4.90;2.50;;;;;;;-142.57;100.00;115900.28;6279846;22;20031;-86
2023/07/03 04:42:38;;;;;;;6.57;2.78;;;;;;;-142.57;99.87;115900.28;6279136;22;20069;-81
2023/07/03 04:45:06;;;;;;;6.60;2.60;;;;;;;-142.57;96.74;115900.28;6279328;22;20011;-84
2023/07/03 04:47:31;;;;;;;6.25;2.75;;;;;;;-142.57;96.40;115900.28;6278243;22;20015;-86
2023/07/03 04:49:58;;;;;;;9.00;2.60;;;;;;;-142.57;94.29;115900.28;6277340;22;20053;-80
2023/07/03 04:52:27;;;;;;;14.10;2.80;;;;;;;-142.57;91.39;115900.28;6277494;22;20004;-84
2023/07/03 04:54:54;;;;;;;9.45;2.25;;;;;;;-142.57;91.19;115900.28;6279467;22;20015;-85
2023/07/03 04:57:20;;;;;;;9.90;2.65;;;;;;;-142.57;89.85;115900.28;6279314;22;20381;-81
2023/07/03 04:59:46;;;;;;;4.50;2.33;;;;;;;-142.57;90.57;115900.28;6277159;22;20019;-80
2023/07/03 05:02:13;;;;;;;10.10;2.67;;;;;;;-142.57;88.99;115900.28;6277473;22;20076;-81
2023/07/03 05:04:39;;;;;;;6.57;2.40;;;;;;;-142.57;86.24;115900.28;6279205;22;20080;-83
2023/07/03 05:07:04;;;;;;;7.80;2.67;;;;;;;-142.57;86.77;115900.28;6277800;22;20438;-86
2023/07/03 05:09:30;;;;;;;5.43;2.17;;;;;;;-142.57;86.94;115900.28;6279515;22;20089;-84
2023/07/03 05:11:55;;;;;;;6.72;2.38;;;;;;;-142.57;85.53;115900.28;6277522;22;20431;-85
2023/07/03 05:14:21;;;;;;;8.90;2.90;;;;;;;-142.57;85.01;115900.28;6277140;22;20381;-87
2023/07/03 05:16:46;;;;;;;8.00;3.00;;;;;;;-142.57;84.15;115900.28;6276991;22;20043;-85
2023/07/03 05:19:13;;;;;;;6.60;3.10;;;;;;;-142.57;83.37;115900.28;6277611;22;20492;-86
2023/07/03 05:21:38;;;;;;;6.95;3.45;;;;;;;-142.57;85.13;115900.28;6278090;22;20011;-83
2023/07/03 05:24:04;;;;;;;19.13;2.88;;;;;;;-142.57;85.61;115900.28;6251063;22;20008;-87
2023/07/03 05:26:30;;;;;;;10.90;3.03;;;;;;;-142.57;85.29;115900.28;6279796;22;20018;-83
2023/07/03 05:28:55;;;;;;;11.32;2.92;;;;;;;-142.57;85.80;115900.28;6287672;22;20012;-83
2023/07/03 05:31:23;;;;;;;4.10;2.05;;;;;;;-142.57;82.98;115900.28;6250762;22;20008;-85
2023/07/03 05:33:49;;;;;;;7.50;3.05;;;;;;;-142.57;81.24;115900.28;6278944;22;20019;-82
2023/07/03 05:36:15;;;;;;;11.18;2.78;;;;;;;-142.57;82.09;115900.28;6278812;22;20450;-85
2023/07/03 05:38:41;;;;;;;10.82;2.47;;;;;;;-142.57;81.37;115900.28;6277704;22;20008;-80
2023/07/03 05:41:06;;;;;;;10.18;2.92;;;;;;;-142.57;82.62;115900.28;6277078;22;20010;-82
2023/07/03 05:43:32;;;;;;;15.90;3.13;;;;;;;-142.57;80.54;115900.28;6276893;22;20110;-83
2023/07/03 05:45:57;;;;;;;9.90;3.00;;;;;;;-142.57;79.31;115900.28;6277174;22;20011;-85
2023/07/03 05:48:24;;;;;;;7.10;2.40;;;;;;;-142.57;79.10;115900.28;6278195;22;20058;-90
2023/07/03 05:50:50;;;;;;;6.22;2.38;;;;;;;-142.57;78.32;115900.28;6278725;22;20438;-85
2023/07/03 05:53:15;;;;;;;10.65;2.92;;;;;;;-142.57;76.92;115900.28;6277899;22;20004;-85
2023/07/03 05:55:41;;;;;;;8.55;2.42;;;;;;;-142.57;75.07;115900.28;6225209;22;20072;-83
2023/07/03 05:58:06;;;;;;;7.68;2.72;;;;;;;-142.57;74.36;115900.28;6277278;22;20015;-85
2023/07/03 06:00:32;;;;;;;11.90;3.25;;;;;;;-142.57;72.10;115900.28;6277409;22;20016;-89
2023/07/03 06:02:59;;;;;;;10.85;3.13;;;;;;;-142.57;71.37;115900.28;6250807;22;20320;-88
2023/07/03 06:05:28;;;;;;;9.45;3.25;;;;;;;-142.57;68.61;115900.28;6278217;22;20010;-87
2023/07/03 06:07:53;;;;;;;7.93;3.03;;;;;;;-142.57;68.14;115900.28;6277354;22;20017;-86
2023/07/03 06:10:19;;;;;;;7.05;3.17;;;;;;;-142.57;68.93;115900.28;6278472;22;20035;-85
2023/07/03 06:12:44;;;;;;;10.60;3.58;;;;;;;-142.57;66.56;115900.28;6279363;22;20007;-89
2023/07/03 06:15:11;;;;;;;10.05;3.97;;;;;;;-142.57;64.20;115900.28;6251995;22;20035;-84
2023/07/03 06:17:38;;;;;;;12.23;4.80;;;;;;;-142.57;61.84;115900.28;6278478;22;20089;-84
2023/07/03 06:20:05;;;;;;;9.20;4.60;;;;;;;-142.57;60.63;115900.28;6278913;22;20019;-87
2023/07/03 06:22:31;;;;;;;14.48;5.40;;;;;;;-142.57;59.73;115900.28;6279225;22;20434;-84
2023/07/03 06:24:56;;;;;;;8.57;5.05;;;;;;;-142.57;59.43;115900.28;6251605;22;20103;-87
2023/07/03 06:27:22;;;;;;;12.35;6.00;;;;;;;-142.57;56.42;115900.28;6278288;22;20073;-86
2023/07/03 06:29:47;;;;;;;12.25;5.97;;;;;;;-142.57;55.03;115900.28;6277571;22;20079;-84
2023/07/03 06:32:13;;;;;;;15.02;6.55;;;;;;;-142.57;55.55;115900.28;6249312;22;20427;-83
2023/07/03 06:34:39;;;;;;;16.70;6.10;;;;;;;-142.57;54.29;115900.28;6249956;22;20008;-88
2023/07/03 06:37:05;;;;;;;11.00;5.15;;;;;;;-142.57;52.21;115900.28;6278334;22;20034;-84
2023/07/03 06:39:32;;;;;;;9.45;5.13;;;;;;;-142.57;50.99;115900.28;6277141;22;20008;-84
2023/07/03 06:41:58;;;;;;;12.02;4.75;;;;;;;-142.57;50.00;115900.28;6276908;22;20010;-85
2023/07/03 06:44:26;;;;;;;17.60;5.45;;;;;;;-142.57;49.53;115900.28;6277349;22;20007;-85
2023/07/03 06:46:52;;;;;;;13.85;5.30;;;;;;;-142.57;48.94;115900.28;6277160;22;20020;-84
2023/07/03 06:49:20;;;;;;;8.63;5.15;;;;;;;-142.57;47.38;115900.28;6250583;22;20004;-86
2023/07/03 06:51:45;;;;;;;8.48;5.05;;;;;;;-142.57;46.90;115900.28;6250354;22;20003;-86
2023/07/03 06:54:11;;;;;;;9.57;5.82;;;;;;;-142.57;45.29;115900.28;6278520;22;20019;-86
2023/07/03 06:56:36;;;;;;;11.85;6.45;;;;;;;-142.57;46.57;115900.28;6252657;22;20011;-88
2023/07/03 06:59:02;;;;;;;11.13;7.28;;;;;;;-142.57;46.83;115900.28;6279831;22;20012;-85
2023/07/03 07:01:30;;;;;;;11.77;6.28;;;;;;;-142.57;44.31;115900.28;6279044;22;19999;-84
2023/07/03 07:03:56;;;;;;;14.98;6.65;;;;;;;-142.57;43.87;115900.28;6251185;22;20008;-85
2023/07/03 07:06:24;;;;;;;14.35;7.70;;;;;;;-142.57;44.61;115900.28;6251255;22;20045;-86
2023/07/03 07:08:51;;;;;;;15.57;7.82;;;;;;;-142.57;48.14;115900.28;6278678;22;20022;-85
2023/07/03 07:11:26;;;;;;;14.77;6.88;;;;;;;-142.57;46.73;115900.28;6278493;22;20006;-83
2023/07/03 07:13:52;;;;;;;11.50;7.22;;;;;;;-142.57;45.68;115900.28;6278438;22;20015;-84
2023/07/03 07:16:34;;;;;;;12.10;7.80;;;;;;;-142.57;45.58;115900.28;6277137;22;20015;-85
2023/07/03 07:19:03;;;;;;;11.40;6.28;;;;;;;-142.57;45.53;115900.28;6276772;22;20016;-85
2023/07/03 07:21:30;;;;;;;11.80;7.50;;;;;;;-142.57;46.15;115900.28;6279356;22;20008;-86
2023/07/03 07:24:02;;;;;;;13.43;6.28;;;;;;;-142.57;44.25;115900.28;6278525;22;20004;-88
2023/07/03 07:26:33;;;;;;;13.95;8.18;;;;;;;-142.57;42.70;115900.28;6251683;22;20453;-88
2023/07/03 07:29:03;;;;;;;20.83;9.07;;;;;;;-142.57;42.15;115900.28;6278635;22;20011;-89
2023/07/03 07:31:31;;;;;;;21.55;8.18;;;;;;;-142.57;42.51;115900.28;6251568;22;20012;-86
2023/07/03 07:33:57;;;;;;;13.77;6.68;;;;;;;-142.57;41.31;115900.28;6279304;22;20011;-86
2023/07/03 07:36:24;;;;;;;19.42;10.85;;;;;;;-142.57;40.90;115900.28;6279284;22;20439;-90
2023/07/03 07:38:52;;;;;;;18.40;10.43;;;;;;;-142.57;41.97;115900.28;6281261;22;20102;-81
2023/07/03 07:41:18;;;;;;;15.70;10.57;;;;;;;-142.57;43.32;115900.28;6278463;22;20014;-84
2023/07/03 07:43:45;;;;;;;18.13;11.90;;;;;;;-142.57;45.45;115900.28;6279492;22;20015;-80
2023/07/03 07:46:11;;;;;;;16.67;11.38;;;;;;;-142.57;44.97;115900.28;6279114;22;20031;-84
2023/07/03 07:48:36;;;;;;;18.48;11.85;;;;;;;-142.57;44.96;115900.28;6280640;22;20015;-85
2023/07/03 07:51:10;;;;;;;20.77;14.00;;;;;;;-142.57;44.63;115900.28;6281529;22;20027;-85
2023/07/03 07:53:37;;;;;;;18.25;11.88;;;;;;;-142.57;43.75;115900.28;6280560;22;20492;-86
2023/07/03 07:56:04;;;;;;;22.58;14.15;;;;;;;-142.57;45.91;115900.28;6278859;22;20038;-81
2023/07/03 07:58:29;;;;;;;21.67;14.50;;;;;;;-142.57;45.98;115900.28;6280108;22;20022;-85
2023/07/03 08:00:57;;;;;;;20.20;12.55;;;;;;;-142.57;45.46;115900.28;6281952;22;20036;-87
2023/07/03 08:03:23;;;;;;;18.77;12.43;;;;;;;-142.57;46.32;115900.28;6277802;22;20469;-82
2023/07/03 08:05:49;;;;;;;24.65;12.52;;;;;;;-142.57;47.56;115900.28;6276741;22;20000;-81
2023/07/03 08:08:15;;;;;;;21.02;12.93;;;;;;;-142.57;47.49;115900.28;6278129;22;20069;-81
2023/07/03 08:10:41;;;;;;;17.90;11.48;;;;;;;-142.57;46.09;115900.28;6231365;22;20008;-82
2023/07/03 08:13:07;;;;;;;18.92;12.43;;;;;;;-142.57;46.32;115900.28;6279406;22;20070;-83
2023/07/03 08:15:33;;;;;;;18.00;12.48;;;;;;;-142.57;45.60;115900.28;6278353;22;20011;-84
2023/07/03 08:17:58;;;;;;;25.40;12.10;;;;;;;-142.57;45.27;115900.28;6277776;22;20442;-81
2023/07/03 08:20:24;;;;;;;18.80;10.68;;;;;;;-142.57;44.71;115900.28;6278759;22;20013;-81
2023/07/03 08:22:49;;;;;;;17.38;10.73;;;;;;;-142.57;44.42;115900.28;6278034;22;20019;-82
2023/07/03 08:25:15;;;;;;;12.93;8.98;;;;;;;-142.57;43.26;115900.28;6278101;22;20464;-84
2023/07/03 08:27:46;;;;;;;20.80;9.88;;;;;;;-142.57;43.03;115900.28;6279202;22;20054;-80
2023/07/03 08:30:12;;;;;;;20.85;10.07;;;;;;;-142.57;42.43;115900.28;6278438;22;20377;-82
2023/07/03 08:32:37;;;;;;;16.17;9.70;;;;;;;-142.57;42.84;115900.28;6277331;22;20085;-83
2023/07/03 08:35:03;;;;;;;13.93;8.48;;;;;;;-142.57;42.18;115900.28;6277555;22;20008;-83
2023/07/03 08:37:30;;;;;;;12.65;7.07;;;;;;;-142.57;39.27;115900.28;6277723;22;20015;-80
2023/07/03 08:39:55;;;;;;;16.63;9.82;;;;;;;-142.57;40.73;115900.28;6277796;22;20008;-84
2023/07/03 08:42:26;;;;;;;15.30;7.85;;;;;;;-142.57;40.13;115900.28;6277738;22;20006;-81
2023/07/03 08:44:53;;;;;;;11.25;6.35;;;;;;;-142.57;38.92;115900.28;6277592;22;20331;-84
2023/07/03 08:47:25;;;;;;;9.00;5.72;;;;;;;-142.57;38.66;115900.28;6276522;22;20011;-82
2023/07/03 08:49:51;;;;;;;15.35;8.95;;;;;;;-142.57;40.37;115900.28;6277110;22;20087;-85
2023/07/03 08:52:30;;;;;;;18.55;10.07;;;;;;;-142.57;43.24;115900.28;6277972;22;20014;-84
2023/07/03 08:54:57;;;;;;;16.48;7.90;;;;;;;-142.57;43.20;115900.28;6276026;22;20015;-84
2023/07/03 08:57:24;;;;;;;14.63;9.63;;;;;;;-142.57;41.97;115900.28;6274623;22;20016;-80
2023/07/03 08:59:53;;;;;;;19.70;10.80;;;;;;;-142.57;41.05;115900.28;6276224;22;20000;-82
2023/07/03 09:02:39;;;;;;;13.57;8.93;;;;;;;-142.57;40.59;115900.28;6276511;22;20018;-82
2023/07/03 09:05:13;;;;;;;14.13;8.20;;;;;;;-142.57;41.05;115900.28;6276794;22;20443;-79
2023/07/03 09:08:01;;;;;;;16.63;8.73;;;;;;;-142.57;39.73;115900.28;6277527;22;20015;-81
2023/07/03 09:10:35;;;;;;;25.33;8.90;;;;;;;-142.57;40.01;115900.28;6250247;22;20086;-82
2023/07/03 09:13:10;;;;;;;14.60;8.00;;;;;;;-142.57;40.45;115900.28;6276882;22;20008;-83
2023/07/03 09:16:00;;;;;;;11.25;7.18;;;;;;;-142.57;38.32;115900.28;6277294;22;20018;-83
2023/07/03 09:18:33;;;;;;;15.18;5.35;;;;;;;-142.57;36.83;115900.28;6277034;22;20012;-79
2023/07/03 09:21:00;;;;;;;13.20;4.65;;;;;;;-142.57;38.06;115900.28;6276566;22;20012;-79
2023/07/03 09:23:51;;;;;;;11.90;7.03;;;;;;;-142.57;39.64;115900.28;6276441;22;20007;-85
2023/07/03 09:26:26;;;;;;;14.02;5.55;;;;;;;-142.57;39.28;115900.28;6276856;22;20008;-83
2023/07/03 09:28:57;;;;;;;12.30;6.85;;;;;;;-142.57;38.70;115900.28;6276839;22;20018;-85
2023/07/03 09:31:24;;;;;;;15.90;7.13;;;;;;;-142.57;38.59;115900.28;6276888;22;20343;-80
2023/07/03 09:33:50;;;;;;;11.70;5.47;;;;;;;-142.57;39.58;115900.28;6277073;22;20064;-81
2023/07/03 09:36:35;;;;;;;13.02;6.10;;;;;;;-142.57;39.74;115900.28;6277259;22;20086;-80
2023/07/03 09:39:18;;;;;;;14.73;6.00;;;;;;;-142.57;41.88;115900.28;6277220;22;20011;-80
2023/07/03 09:41:44;;;;;;;9.45;5.45;;;;;;;-142.57;41.73;115900.28;6250356;22;20492;-81
2023/07/03 09:44:13;;;;;;;12.23;6.82;;;;;;;-142.57;41.51;115900.28;6276894;22;20038;-85
2023/07/03 09:46:40;;;;;;;13.35;5.45;;;;;;;-142.57;42.16;115900.28;6276585;22;20034;-82
2023/07/03 09:49:19;;;;;;;9.80;5.40;;;;;;;-142.57;42.42;115900.28;6276932;22;20015;-81
2023/07/03 09:51:50;;;;;;;8.77;4.82;;;;;;;-142.57;41.40;115900.28;6249858;22;20442;-82
2023/07/03 09:54:21;;;;;;;12.55;4.97;;;;;;;-142.57;39.04;115900.28;6276589;22;20061;-83
2023/07/03 09:56:49;;;;;;;13.30;5.35;;;;;;;-142.57;39.07;115900.28;6277243;22;20439;-84
2023/07/03 09:59:18;;;;;;;14.13;5.70;;;;;;;-142.57;38.79;115900.28;6277925;22;20012;-79
2023/07/03 10:01:44;;;;;;;9.98;5.28;;;;;;;-142.57;39.54;115900.28;6277472;22;20057;-80
2023/07/03 10:04:16;;;;;;;12.80;5.32;;;;;;;-142.57;39.75;115900.28;6277004;22;20338;-82
2023/07/03 10:06:57;;;;;;;10.35;5.40;;;;;;;-142.57;39.77;115900.28;6277581;22;20430;-78
2023/07/03 10:09:28;;;;;;;8.50;5.38;;;;;;;-142.57;39.66;115900.28;6277336;22;20472;-81
2023/07/03 10:11:54;;;;;;;8.45;5.32;;;;;;;-142.57;39.03;115900.28;6277078;22;20339;-79
2023/07/03 10:14:37;;;;;;;18.38;5.32;;;;;;;-142.57;38.66;115900.28;6277099;22;19999;-80
2023/07/03 10:17:12;;;;;;;13.27;5.18;;;;;;;-142.57;37.68;115900.28;6276936;22;20014;-82
2023/07/03 10:19:43;;;;;;;8.52;4.93;;;;;;;-142.57;37.23;115900.28;6276650;22;20477;-80
2023/07/03 10:22:10;;;;;;;12.43;5.07;;;;;;;-142.57;36.95;115900.28;6225689;22;20098;-80
2023/07/03 10:24:37;;;;;;;9.95;4.38;;;;;;;-142.57;36.90;115900.28;6278754;22;20315;-83
2023/07/03 10:27:03;;;;;;;10.10;4.45;;;;;;;-142.57;37.17;115900.28;6277716;22;20003;-79
2023/07/03 10:29:37;;;;;;;13.70;5.10;;;;;;;-142.57;38.00;115900.28;6276567;22;20011;-83
2023/07/03 10:32:15;;;;;;;9.52;4.78;;;;;;;-142.57;38.29;115900.28;6249125;22;20016;-85
2023/07/03 10:34:48;;;;;;;9.00;5.00;;;;;;;-142.57;37.87;115900.28;6276649;22;20035;-80
2023/07/03 10:37:18;;;;;;;9.25;5.47;;;;;;;-142.57;38.62;115900.28;6276601;22;20004;-84
2023/07/03 10:39:57;;;;;;;8.15;4.90;;;;;;;-142.57;39.99;115900.28;6276590;22;20018;-82
2023/07/03 10:42:29;;;;;;;11.73;5.32;;;;;;;-142.57;41.86;115900.28;6277143;22;20065;-86
2023/07/03 10:45:14;;;;;;;;;;;;;;;-142.57;42.97;115900.28;6277739;22;20078;-85
2023/07/03 10:47:48;;;;;;;9.80;5.50;;;;;;;-142.57;43.64;115900.28;6275770;22;20325;-82
2023/07/03 10:50:15;;;;;;;11.98;5.40;;;;;;;-142.57;43.46;115900.28;6249281;22;20079;-83
2023/07/03 10:52:52;;;;;;;14.40;5.82;;;;;;;-142.57;42.75;115900.28;6249419;22;20011;-81
2023/07/03 10:55:33;;;;;;;8.77;5.47;;;;;;;-142.57;44.14;115900.28;6276480;22;20008;-82
2023/07/03 10:58:05;;;;;;;11.95;5.28;;;;;;;-142.57;43.84;115900.28;6276637;22;20052;-84
2023/07/03 11:00:39;;;;;;;;;;;;;;;-142.57;43.93;115900.28;6277200;22;20019;-86
2023/07/03 11:03:35;;;;;;;13.30;5.50;;;;;;;-142.57;44.79;115900.28;6277094;22;20314;-84
2023/07/03 11:06:05;;;;;;;10.77;4.70;;;;;;;-142.57;44.72;115900.28;6250257;22;20066;-86
2023/07/03 11:08:48;;;;;;;15.95;5.30;;;;;;;-142.57;44.91;115900.28;6277990;22;20012;-85
2023/07/03 11:11:30;;;;;;;14.32;5.95;;;;;;;-142.57;44.42;115900.28;6278526;22;20090;-84